Time;durP1;ratioP1;P1;durP2;ratioP2;P2;SDS_P1;SDS_P2;PMS_P1;PMS_P2;Temp;Humidity;BMP_temperature;BMP_pressure;BME280_temperature;BME280_humidity;BME280_pressure;Samples;Min_cycle;Max_cycle;Signal;HPM_P1;HPM_P2
2022/11/10 00:01:18;;;;;;;6.38;2.83;;;12.00;99.90;;;15.03;60.13;97988.94;4931769;29;20050;-60
2022/11/10 00:04:04;;;;;;;4.15;2.55;;;12.00;99.90;;;14.93;59.97;97990.00;4929394;29;20069;-60
2022/11/10 00:06:51;;;;;;;6.13;2.47;;;11.90;99.90;;;14.96;59.95;97986.94;4917611;29;20365;-59
2022/11/10 00:09:38;;;;;;;5.88;2.38;;;11.90;99.90;;;14.91;60.27;97999.25;4913031;29;20063;-60
2022/11/10 00:12:24;;;;;;;5.72;2.80;;;11.90;99.90;;;15.00;59.97;98002.69;4911083;29;20051;-60
2022/11/10 00:18:17;;;;;;;6.05;3.35;;;11.90;99.90;;;15.07;59.70;98006.31;4911929;29;20051;-60
2022/11/10 00:21:07;;;;;;;6.22;2.53;;;11.90;99.90;;;15.02;59.83;98006.84;4909775;29;20055;-60
2022/11/10 00:23:53;;;;;;;6.07;3.03;;;11.90;99.90;;;14.94;60.07;98004.22;4913123;29;20055;-60
2022/11/10 00:26:40;;;;;;;7.70;2.83;;;11.80;99.90;;;14.96;60.00;98004.88;4911729;29;20043;-60
2022/11/10 00:29:26;;;;;;;5.68;2.42;;;11.90;99.90;;;14.98;59.93;98010.91;4908949;29;20051;-60
2022/11/10 00:32:13;;;;;;;4.97;2.75;;;11.90;99.90;;;14.97;59.74;98006.56;4913428;29;20047;-60
2022/11/10 00:35:00;;;;;;;6.05;2.85;;;11.90;99.90;;;14.95;59.84;98011.28;4909969;29;20055;-60
2022/11/10 00:37:49;;;;;;;4.72;2.65;;;11.90;99.90;;;15.00;59.80;98013.41;4908821;29;20234;-60
2022/11/10 00:40:36;;;;;;;5.22;2.78;;;11.90;99.90;;;14.96;59.67;98020.97;4908922;29;20388;-60
2022/11/10 00:43:22;;;;;;;9.27;3.58;;;11.80;99.90;;;14.97;59.84;98025.34;4910470;29;20055;-60
2022/11/10 00:46:12;;;;;;;5.25;3.15;;;11.80;99.90;;;14.96;59.45;98029.00;4909135;29;20047;-60
2022/11/10 00:48:59;;;;;;;6.38;2.63;;;11.80;99.90;;;14.89;59.67;98031.59;4911975;29;20046;-60
2022/11/10 00:51:46;;;;;;;5.55;2.30;;;11.80;99.90;;;14.78;60.07;98032.00;4910869;29;20047;-60
2022/11/10 00:54:32;;;;;;;8.82;3.08;;;11.70;99.90;;;14.70;59.92;98038.25;4908595;29;20051;-60
2022/11/10 00:57:19;;;;;;;7.70;2.47;;;11.60;99.90;;;14.58;60.40;98042.38;4912542;29;20230;-60
2022/11/10 01:00:07;;;;;;;11.10;3.25;;;11.60;99.90;;;14.65;60.21;98042.47;4919660;29;20062;-60
2022/11/10 01:02:54;;;;;;;8.25;2.65;;;11.60;99.90;;;14.70;60.15;98040.09;4926781;29;20040;-60
2022/11/10 01:05:42;;;;;;;6.18;2.90;;;11.60;99.90;;;14.64;60.18;98052.38;4923911;29;20043;-59
2022/11/10 01:08:29;;;;;;;7.20;3.30;;;11.60;99.90;;;14.63;60.23;98057.91;4910701;29;20055;-60
2022/11/10 01:11:22;;;;;;;9.25;3.00;;;11.60;99.90;;;14.69;60.06;98049.97;4908457;29;20386;-60
2022/11/10 01:14:09;;;;;;;6.95;3.40;;;11.60;99.90;;;14.73;59.82;98059.34;4910936;29;20047;-60
2022/11/10 01:16:55;;;;;;;4.53;2.60;;;11.60;99.90;;;14.61;59.91;98063.44;4909484;29;20107;-59
2022/11/10 01:19:42;;;;;;;6.57;2.92;;;11.60;99.90;;;14.59;60.04;98068.13;4910770;29;20055;-60
2022/11/10 01:22:30;;;;;;;5.53;2.85;;;11.60;99.90;;;14.64;59.98;98068.44;4909614;29;20050;-60
2022/11/10 01:25:16;;;;;;;10.55;3.30;;;11.60;99.90;;;14.57;60.19;98081.69;4912929;29;20105;-60
2022/11/10 01:28:03;;;;;;;5.72;3.63;;;11.60;99.90;;;14.62;60.12;98085.69;4911048;29;20040;-60
2022/11/10 01:31:00;;;;;;;12.10;2.70;;;11.60;99.90;;;14.62;60.20;98085.69;4909554;29;20064;-60
2022/11/10 01:33:47;;;;;;;4.38;2.88;;;11.60;99.90;;;14.66;60.09;98090.53;4911800;29;20205;-60
2022/11/10 01:36:33;;;;;;;7.38;2.67;;;11.60;99.90;;;14.66;60.05;98093.22;4910992;29;20409;-60
2022/11/10 01:39:20;;;;;;;6.03;3.05;;;11.60;99.90;;;14.66;60.11;98087.84;4908894;29;20071;-60
2022/11/10 01:42:07;;;;;;;5.82;2.70;;;11.60;99.90;;;14.71;60.13;98090.00;4912521;29;20051;-60
2022/11/10 01:45:21;;;;;;;7.65;3.35;;;11.70;99.90;;;14.70;59.94;98089.16;4909020;29;20074;-60
2022/11/10 01:48:16;;;;;;;7.43;3.25;;;11.70;99.90;;;14.70;59.82;98085.66;4912765;29;20050;-60
2022/11/10 01:51:20;;;;;;;5.43;2.55;;;11.60;99.90;;;14.65;59.65;98086.19;4909671;29;20054;-58
2022/11/10 01:54:18;;;;;;;5.18;3.03;;;11.60;99.90;;;14.63;59.66;98101.59;4907308;29;20067;-60
2022/11/10 01:57:09;;;;;;;8.60;3.67;;;11.50;99.90;;;14.57;59.72;98103.13;4910084;29;20063;-60
2022/11/10 01:59:56;;;;;;;7.93;2.83;;;11.50;99.90;;;14.37;60.28;98100.03;4916766;29;20046;-60
2022/11/10 02:02:56;;;;;;;7.95;2.78;;;11.40;99.90;;;14.37;59.96;98105.38;4931844;29;20048;-60
2022/11/10 02:05:43;;;;;;;9.60;3.08;;;11.40;99.90;;;14.33;59.99;98108.59;4919709;29;20048;-60
2022/11/10 02:08:30;;;;;;;5.90;2.60;;;11.30;99.90;;;14.31;59.85;98103.41;4906675;29;20250;-60
2022/11/10 02:11:17;;;;;;;8.52;3.30;;;11.30;99.90;;;14.29;60.06;98102.75;4910693;29;20067;-60
2022/11/10 02:14:05;;;;;;;6.78;2.90;;;11.30;99.90;;;14.21;60.21;98102.78;4908745;29;20047;-60
2022/11/10 02:16:52;;;;;;;4.70;2.90;;;11.20;99.90;;;14.13;60.25;98100.09;4907654;29;20051;-60
2022/11/10 02:19:40;;;;;;;4.53;2.70;;;11.20;99.90;;;14.14;60.25;98101.78;4909724;29;20051;-60
2022/11/10 02:22:27;;;;;;;9.90;3.08;;;11.10;99.90;;;14.08;60.23;98108.66;4908661;29;20234;-60
2022/11/10 02:25:20;;;;;;;8.15;3.42;;;11.10;99.90;;;14.10;60.12;98114.69;4911937;29;20051;-60
2022/11/10 02:28:07;;;;;;;7.27;3.53;;;11.10;99.90;;;14.07;60.14;98116.88;4910175;29;20063;-60
2022/11/10 02:30:54;;;;;;;4.43;2.95;;;11.00;99.90;;;14.02;60.24;98121.91;4908720;29;20047;-60
2022/11/10 02:33:41;;;;;;;4.57;2.90;;;11.00;99.90;;;14.02;60.23;98132.63;4911562;29;20051;-60
2022/11/10 02:36:27;;;;;;;8.00;3.15;;;11.00;99.90;;;14.02;59.99;98133.47;4910098;29;20071;-60
2022/11/10 02:39:14;;;;;;;7.72;2.90;;;11.00;99.90;;;13.99;59.89;98134.59;4908477;29;20051;-60
2022/11/10 02:42:01;;;;;;;8.52;3.70;;;10.90;99.90;;;13.96;59.99;98136.81;4911430;29;20067;-60
2022/11/10 02:44:47;;;;;;;7.10;3.17;;;10.90;99.90;;;13.96;59.81;98148.34;4910004;29;20365;-60
2022/11/10 02:47:34;;;;;;;5.93;3.25;;;10.90;99.90;;;13.95;59.89;98144.00;4907930;29;20051;-60
2022/11/10 02:50:20;;;;;;;12.05;4.00;;;10.90;99.90;;;13.93;59.82;98150.53;4911772;29;20051;-60
2022/11/10 02:53:08;;;;;;;11.02;3.15;;;10.80;99.90;;;13.91;59.92;98155.22;4909417;29;20040;-60
2022/11/10 02:55:54;;;;;;;5.88;2.53;;;10.80;99.90;;;13.89;59.91;98157.22;4907346;29;20048;-60
2022/11/10 02:58:41;;;;;;;8.90;3.33;;;10.80;99.90;;;13.85;60.17;98158.59;4911481;29;20047;-60
2022/11/10 03:01:28;;;;;;;8.77;3.80;;;10.70;99.90;;;13.83;60.05;98163.28;4908931;29;20099;-60
2022/11/10 03:04:14;;;;;;;9.05;3.67;;;10.70;99.90;;;13.81;60.21;98181.34;4907369;29;20055;-60
2022/11/10 03:07:01;;;;;;;11.52;3.42;;;10.70;99.90;;;13.79;60.13;98178.81;4911553;29;20238;-60
2022/11/10 03:09:47;;;;;;;10.00;2.95;;;10.70;99.90;;;13.78;60.18;98179.81;4909774;29;20049;-60
2022/11/10 03:12:34;;;;;;;6.17;2.90;;;10.70;99.90;;;13.74;60.39;98187.34;4908237;29;20040;-60
2022/11/10 03:15:21;;;;;;;4.70;2.63;;;10.70;99.90;;;13.72;60.29;98189.34;4910907;29;20051;-60
2022/11/10 03:18:07;;;;;;;5.67;3.30;;;10.60;99.90;;;13.70;60.48;98191.34;4909889;29;20059;-60
2022/11/10 03:20:54;;;;;;;12.35;3.67;;;10.60;99.90;;;13.64;60.58;98189.34;4910826;29;20070;-60
2022/11/10 03:23:41;;;;;;;6.50;3.00;;;10.60;99.90;;;13.65;60.30;98198.22;4909954;29;20343;-60
2022/11/10 03:26:28;;;;;;;7.00;3.20;;;10.60;99.90;;;13.63;60.15;98190.38;4908302;29;20055;-59
2022/11/10 03:29:15;;;;;;;5.83;3.20;;;10.60;99.90;;;13.63;60.36;98200.22;4907894;29;20245;-59
2022/11/10 03:32:02;;;;;;;8.67;3.83;;;10.60;99.90;;;13.55;60.44;98203.72;4914250;29;20051;-60
2022/11/10 03:34:48;;;;;;;5.63;2.60;;;10.50;99.90;;;13.58;60.38;98195.38;4911645;29;20067;-60
2022/11/10 03:37:35;;;;;;;7.07;3.50;;;10.50;99.90;;;13.58;60.48;98192.72;4910541;29;20051;-60
2022/11/10 03:40:22;;;;;;;4.97;3.20;;;10.50;99.90;;;13.59;60.57;98197.91;4910554;29;20051;-60
2022/11/10 03:43:11;;;;;;;10.10;3.30;;;10.60;99.90;;;13.54;60.63;98207.41;4911819;29;20051;-60
2022/11/10 03:45:58;;;;;;;7.50;2.92;;;10.50;99.90;;;13.56;60.43;98210.75;4908947;29;20044;-59
2022/11/10 03:48:45;;;;;;;11.23;3.50;;;10.50;99.90;;;13.55;60.48;98209.94;4913516;29;20050;-60
2022/11/10 03:51:38;;;;;;;5.10;2.70;;;10.50;99.90;;;13.55;60.44;98215.28;4911399;29;20048;-60
2022/11/10 03:54:25;;;;;;;9.53;3.43;;;10.50;99.90;;;13.48;60.38;98214.25;4914859;29;20214;-60
2022/11/10 03:57:12;;;;;;;9.80;4.40;;;10.40;99.90;;;13.45;60.32;98216.44;4912925;29;20055;-59
2022/11/10 03:59:58;;;;;;;7.53;3.20;;;10.40;99.90;;;13.45;60.23;98217.25;4919106;29;20062;-60
2022/11/10 04:02:45;;;;;;;4.17;2.93;;;10.40;99.90;;;13.45;60.51;98230.63;4933859;29;20051;-60
2022/11/10 04:18:25;;;;;;;5.80;3.70;;;10.20;99.90;;;13.30;60.22;98261.69;4911628;29;20067;-60
2022/11/10 04:21:11;;;;;;;6.93;3.13;;;10.20;99.90;;;13.30;59.72;98273.25;4909999;29;20062;-60
2022/11/10 04:23:58;;;;;;;7.47;3.43;;;10.10;99.90;;;13.22;59.86;98275.00;4912798;29;20361;-60
2022/11/10 04:26:46;;;;;;;12.20;6.10;;;10.10;99.90;;;13.19;60.03;98274.34;4910538;29;20114;-60
2022/11/10 04:29:33;;;;;;;7.07;3.77;;;10.10;99.90;;;13.13;60.04;98266.16;4908478;29;20044;-60
2022/11/10 04:32:19;;;;;;;7.37;4.60;;;10.00;99.90;;;13.10;60.22;98275.31;4913338;29;20047;-60
2022/11/10 04:35:07;;;;;;;7.43;4.33;;;9.90;99.90;;;13.05;60.20;98274.97;4910639;29;20051;-60
2022/11/10 04:37:53;;;;;;;12.13;4.17;;;9.90;99.90;;;13.01;60.21;98281.66;4909625;29;20051;-59
2022/11/10 04:40:40;;;;;;;4.83;3.00;;;9.90;99.90;;;12.92;60.33;98269.25;4908932;29;20381;-59
2022/11/10 04:43:27;;;;;;;9.53;3.47;;;9.80;99.90;;;12.91;60.20;98283.59;4911395;29;20059;-59
2022/11/10 04:46:29;;;;;;;7.70;3.27;;;9.80;99.90;;;12.87;60.42;98295.59;4909140;29;20054;-59
2022/11/10 04:49:16;;;;;;;9.30;4.93;;;9.80;99.90;;;12.88;60.62;98302.63;4912036;29;20047;-59
2022/11/10 04:52:02;;;;;;;10.50;3.90;;;9.80;99.90;;;12.88;60.59;98302.63;4910650;29;20047;-60
2022/11/10 04:54:49;;;;;;;7.80;3.40;;;9.90;99.90;;;12.89;60.64;98307.81;4913338;29;20051;-59
2022/11/10 04:57:35;;;;;;;6.60;3.93;;;9.90;99.90;;;12.89;60.45;98304.28;4912283;29;20050;-59
2022/11/10 05:00:22;;;;;;;7.33;5.13;;;9.90;99.90;;;12.88;60.68;98302.63;4913320;29;20375;-59
2022/11/10 05:03:11;;;;;;;9.73;6.03;;;9.90;99.90;;;12.85;60.71;98310.94;4932744;29;20050;-60
2022/11/10 05:05:57;;;;;;;10.57;5.43;;;9.80;99.90;;;12.81;60.88;98318.44;4921468;29;20063;-59
2022/11/10 05:08:45;;;;;;;11.00;6.07;;;9.80;99.90;;;12.82;60.60;98314.78;4907644;29;20079;-60
2022/11/10 05:11:32;;;;;;;8.30;4.70;;;9.80;99.90;;;12.82;60.51;98320.13;4913409;29;20047;-59
2022/11/10 05:14:18;;;;;;;11.47;5.07;;;9.80;99.90;;;12.80;60.55;98328.31;4910369;29;20047;-59
2022/11/10 05:17:05;;;;;;;8.17;4.30;;;9.80;99.90;;;12.79;60.63;98331.13;4909808;29;20055;-59
2022/11/10 05:19:52;;;;;;;8.90;3.80;;;9.80;99.90;;;12.80;60.51;98336.31;4913600;29;20051;-59
2022/11/10 05:22:38;;;;;;;5.27;3.30;;;9.80;99.90;;;12.79;60.91;98333.78;4911570;29;20055;-59
2022/11/10 05:25:29;;;;;;;6.97;2.83;;;9.80;99.90;;;12.80;60.69;98344.34;4908968;29;20055;-59
2022/11/10 05:28:15;;;;;;;10.23;3.07;;;9.80;99.90;;;12.84;60.53;98346.69;4912851;29;20086;-59
2022/11/10 05:31:02;;;;;;;7.70;3.60;;;9.80;99.90;;;12.82;60.68;98351.38;4911350;29;20079;-59
2022/11/10 05:33:49;;;;;;;8.60;2.80;;;9.80;99.90;;;12.80;60.63;98348.84;4908949;29;20050;-60
2022/11/10 05:36:36;;;;;;;8.63;3.63;;;9.90;99.90;;;12.81;60.78;98342.50;4912516;29;20056;-60
2022/11/10 05:39:22;;;;;;;12.20;5.87;;;9.80;99.90;;;12.85;60.40;98349.19;4911035;29;20051;-59
2022/11/10 05:42:09;;;;;;;8.60;4.13;;;9.90;99.90;;;12.87;60.52;98351.72;4907844;29;20234;-59
2022/11/10 05:44:55;;;;;;;8.90;3.13;;;9.90;99.90;;;12.90;60.49;98346.88;4912385;29;20051;-59
2022/11/10 05:47:42;;;;;;;5.10;3.50;;;9.90;99.90;;;12.90;60.44;98343.38;4910809;29;20066;-59
2022/11/10 05:50:29;;;;;;;10.93;3.87;;;9.90;99.90;;;12.93;60.15;98354.59;4908480;29;20051;-60
2022/11/10 05:53:15;;;;;;;9.27;3.13;;;9.90;99.90;;;12.96;60.36;98348.91;4910963;29;20238;-60
2022/11/10 05:56:02;;;;;;;7.63;3.07;;;9.90;99.90;;;12.96;59.92;98342.75;4909379;29;20063;-60
2022/11/10 05:58:48;;;;;;;7.77;3.20;;;9.90;99.90;;;12.94;60.25;98342.91;4908558;29;20051;-59
2022/11/10 06:01:35;;;;;;;10.13;4.37;;;9.90;99.90;;;12.97;59.93;98360.47;4893986;29;20051;-60
2022/11/10 06:04:22;;;;;;;7.33;3.87;;;9.90;99.90;;;12.99;60.01;98370.00;4890830;29;20079;-59
2022/11/10 06:07:08;;;;;;;4.40;3.03;;;10.00;99.90;;;13.00;59.85;98387.69;4907070;29;20051;-58
2022/11/10 06:09:55;;;;;;;5.87;4.50;;;10.00;99.90;;;13.01;59.79;98383.22;4911877;29;20051;-60
2022/11/10 06:12:41;;;;;;;9.50;3.27;;;9.90;99.90;;;13.00;59.61;98394.88;4910643;29;20047;-58
2022/11/10 06:15:29;;;;;;;12.67;8.60;;;9.90;99.90;;;12.98;59.65;98397.72;4908201;29;20046;-59
2022/11/10 06:18:15;;;;;;;8.97;6.57;;;9.90;99.90;;;12.99;59.65;98387.88;4911320;29;20377;-58
2022/11/10 06:21:02;;;;;;;10.80;4.20;;;9.90;99.90;;;12.97;59.46;98385.34;4908962;29;20054;-60
2022/11/10 06:23:49;;;;;;;7.33;3.33;;;9.90;99.90;;;12.96;59.57;98398.88;4908237;29;20138;-61
2022/11/10 06:26:35;;;;;;;10.27;4.00;;;9.80;99.90;;;12.92;59.45;98402.84;4911888;29;20055;-60
2022/11/10 06:29:21;;;;;;;6.10;2.63;;;9.80;99.90;;;12.89;59.23;98420.06;4909694;29;20368;-61
2022/11/10 06:32:12;;;;;;;7.90;2.70;;;9.80;99.90;;;12.89;59.39;98440.56;4907611;29;20369;-61
2022/11/10 06:34:58;;;;;;;3.97;2.40;;;9.80;99.90;;;12.85;58.90;98448.06;4911386;29;20109;-60
2022/11/10 06:38:02;;;;;;;3.67;3.03;;;9.70;99.90;;;12.84;59.49;98448.25;4909361;29;20071;-61
2022/11/10 06:40:49;;;;;;;11.87;7.57;;;9.70;99.90;;;12.81;59.21;98454.72;4906515;29;20083;-60
2022/11/10 06:43:35;;;;;;;8.67;3.83;;;9.70;99.90;;;12.79;59.37;98467.38;4910636;29;20072;-60
2022/11/10 06:46:22;;;;;;;5.93;3.17;;;9.70;99.90;;;12.79;59.00;98472.75;4907836;29;20051;-60
2022/11/10 06:49:09;;;;;;;5.60;3.23;;;9.70;99.90;;;12.76;58.67;98481.06;4907165;29;20046;-61
2022/11/10 06:51:55;;;;;;;7.13;3.50;;;9.70;99.90;;;12.79;59.11;98488.75;4910790;29;20364;-60
2022/11/10 06:54:42;;;;;;;4.43;2.70;;;9.70;99.90;;;12.75;58.64;98485.56;4908775;29;20047;-60
2022/11/10 06:57:28;;;;;;;7.50;3.17;;;9.60;99.90;;;12.77;58.79;98496.09;4907106;29;20265;-61
2022/11/10 07:00:16;;;;;;;5.67;2.43;;;9.60;99.90;;;12.71;58.70;98508.25;4921116;29;20055;-61
2022/11/10 07:03:05;;;;;;;6.63;3.43;;;9.60;99.90;;;12.68;58.89;98505.91;4926976;29;20052;-61
2022/11/10 07:05:52;;;;;;;6.97;3.10;;;9.50;99.90;;;12.67;58.90;98509.53;4921163;29;20094;-61
2022/11/10 07:08:39;;;;;;;3.73;2.57;;;9.50;99.90;;;12.70;58.72;98508.41;4914310;29;20047;-60
2022/11/10 07:11:25;;;;;;;10.03;5.30;;;9.60;99.90;;;12.72;58.91;98506.44;4912692;29;20254;-61
2022/11/10 07:14:12;;;;;;;6.30;4.10;;;9.60;99.90;;;12.72;58.77;98515.28;4909987;29;20404;-61
2022/11/10 07:16:59;;;;;;;6.03;2.97;;;9.60;99.90;;;12.73;58.75;98518.78;4914314;29;20368;-61
2022/11/10 07:19:46;;;;;;;6.77;3.17;;;9.60;99.90;;;12.73;58.63;98524.94;4912124;29;20066;-60
2022/11/10 07:22:32;;;;;;;5.20;3.40;;;9.70;99.90;;;12.73;58.91;98535.63;4910886;29;20054;-61
2022/11/10 07:25:19;;;;;;;5.77;2.63;;;9.70;99.90;;;12.74;58.97;98537.34;4913557;29;20058;-61
2022/11/10 07:28:11;;;;;;;4.23;2.33;;;9.70;99.90;;;12.72;58.97;98538.50;4912087;29;20062;-60
2022/11/10 07:31:01;;;;;;;5.50;2.57;;;9.70;99.90;;;12.75;58.42;98539.00;4909555;29;20050;-60
2022/11/10 07:33:48;;;;;;;3.37;2.07;;;9.70;99.90;;;12.77;58.77;98552.22;4912560;29;20051;-61
2022/11/10 07:36:39;;;;;;;4.40;2.07;;;9.70;99.90;;;12.80;58.56;98549.25;4911610;29;20279;-61
2022/11/10 07:39:26;;;;;;;3.60;1.67;;;9.80;99.90;;;12.80;58.67;98557.25;4913349;29;20050;-61
2022/11/10 07:42:14;;;;;;;2.93;1.97;;;9.80;99.90;;;12.80;58.36;98560.75;4913518;29;20051;-60
2022/11/10 07:45:01;;;;;;;2.90;2.20;;;9.80;99.90;;;12.84;58.58;98569.31;4911116;29;20368;-61
2022/11/10 07:47:47;;;;;;;5.17;2.60;;;9.80;99.90;;;12.83;58.35;98569.47;4915027;29;20055;-61
2022/11/10 07:50:34;;;;;;;7.37;2.87;;;9.80;99.90;;;12.87;58.11;98581.53;4912988;29;20059;-60
2022/11/10 07:53:21;;;;;;;4.50;2.53;;;9.80;99.90;;;12.87;58.24;98584.19;4911521;29;20369;-60
2022/11/10 07:56:08;;;;;;;3.50;2.10;;;9.90;99.90;;;12.91;58.48;98583.75;4914487;29;20062;-60
2022/11/10 07:58:54;;;;;;;2.90;1.93;;;10.00;99.90;;;12.96;58.33;98591.31;4913187;29;20098;-61
2022/11/10 08:01:41;;;;;;;4.93;2.87;;;10.00;99.90;;;12.98;58.16;98590.16;4891454;29;20271;-60
2022/11/10 08:04:28;;;;;;;3.23;2.00;;;10.00;99.90;;;13.04;58.48;98587.88;4895584;29;20239;-60
2022/11/10 08:07:14;;;;;;;5.00;2.20;;;10.10;99.90;;;13.06;58.50;98591.22;4910963;29;20388;-60
2022/11/10 08:10:01;;;;;;;2.30;1.73;;;10.10;99.90;;;13.07;58.34;98590.25;4907742;29;20052;-61
2022/11/10 08:12:59;;;;;;;3.83;2.23;;;10.20;99.90;;;13.12;58.30;98598.63;4914282;29;20051;-60
2022/11/10 08:15:46;;;;;;;5.70;2.17;;;10.20;99.90;;;13.18;58.01;98612.22;4910631;29;20063;-60
2022/11/10 08:18:33;;;;;;;7.30;2.87;;;10.20;99.90;;;13.24;58.19;98612.59;4909689;29;20377;-60
2022/11/10 08:21:21;;;;;;;6.70;2.57;;;10.30;99.90;;;13.29;58.05;98611.13;4914001;29;20054;-60
2022/11/10 08:24:08;;;;;;;4.07;1.57;;;10.40;99.90;;;13.35;58.07;98615.06;4909643;29;20344;-60
2022/11/10 08:26:55;;;;;;;4.33;2.17;;;10.40;99.90;;;13.41;58.17;98614.44;4912401;29;20063;-60
2022/11/10 08:29:42;;;;;;;7.87;3.63;;;10.50;99.90;;;13.45;57.98;98604.25;4910393;29;20047;-60
2022/11/10 08:32:28;;;;;;;6.90;3.43;;;10.50;99.90;;;13.48;58.38;98606.63;4914292;29;20067;-60
2022/11/10 08:35:15;;;;;;;5.70;2.53;;;10.60;99.90;;;13.54;58.54;98614.03;4910915;29;20046;-61
2022/11/10 08:38:15;;;;;;;6.10;2.50;;;10.60;99.90;;;13.61;58.11;98620.44;4910516;29;20051;-61
2022/11/10 08:41:02;;;;;;;6.93;2.43;;;10.70;99.90;;;13.66;58.30;98628.81;4912407;29;20369;-60
2022/11/10 08:43:49;;;;;;;6.47;2.30;;;10.80;99.90;;;13.71;58.06;98629.19;4911536;29;20051;-60
2022/11/10 08:46:35;;;;;;;2.70;2.00;;;10.80;99.90;;;13.77;58.08;98633.09;4908787;29;20047;-60
2022/11/10 08:49:22;;;;;;;9.23;2.83;;;10.90;99.90;;;13.80;57.74;98638.09;4913269;29;20051;-61
2022/11/10 08:52:10;;;;;;;7.07;3.20;;;10.90;99.90;;;13.81;57.86;98636.28;4911782;29;20051;-61
2022/11/10 08:54:56;;;;;;;4.77;2.33;;;10.90;99.90;;;13.87;57.79;98643.69;4908694;29;20047;-61
2022/11/10 08:57:42;;;;;;;4.37;2.67;;;11.00;99.90;;;13.89;57.74;98655.91;4913072;29;20067;-60
2022/11/10 09:00:31;;;;;;;3.17;1.70;;;11.00;99.90;;;13.92;57.64;98652.94;4916731;29;20054;-61
2022/11/10 09:03:24;;;;;;;5.17;3.23;;;11.00;99.90;;;13.95;57.65;98649.91;4927418;29;20241;-61
2022/11/10 09:06:11;;;;;;;3.80;2.27;;;11.00;99.90;;;13.97;57.74;98661.31;4920188;29;20117;-60
2022/11/10 09:08:58;;;;;;;5.45;3.30;;;11.10;99.90;;;14.01;57.47;98666.34;4909593;29;20071;-61
2022/11/10 09:11:44;;;;;;;6.63;2.47;;;11.10;99.90;;;14.04;57.37;98661.53;4907668;29;20381;-61
2022/11/10 09:14:32;;;;;;;5.50;2.67;;;11.20;99.90;;;14.08;57.45;98659.38;4912238;29;20051;-60
2022/11/10 09:17:19;;;;;;;6.60;1.90;;;11.20;99.90;;;14.10;57.23;98666.25;4910372;29;20047;-60
2022/11/10 09:20:07;;;;;;;2.05;1.58;;;11.20;99.90;;;14.15;57.22;98671.97;4908072;29;20162;-60
2022/11/10 09:22:54;;;;;;;4.13;1.60;;;11.30;99.90;;;14.21;57.07;98675.00;4911391;29;20373;-60
2022/11/10 09:25:47;;;;;;;6.43;2.97;;;11.30;99.90;;;14.21;56.94;98675.00;4908054;29;20070;-61
2022/11/10 09:28:33;;;;;;;6.63;2.67;;;11.40;99.90;;;14.24;56.98;98680.88;4911439;29;20071;-61
2022/11/10 09:31:20;;;;;;;4.47;2.05;;;11.40;99.90;;;14.27;56.93;98685.94;4910845;29;20075;-61
2022/11/10 09:34:07;;;;;;;2.58;1.80;;;11.50;99.90;;;14.31;56.92;98689.97;4908059;29;20055;-61
2022/11/10 09:36:53;;;;;;;3.03;1.80;;;11.50;99.90;;;14.37;56.76;98700.03;4912538;29;20051;-60
2022/11/10 09:39:40;;;;;;;7.28;2.40;;;11.50;99.90;;;14.41;56.88;98695.19;4910091;29;20246;-60
2022/11/10 09:42:33;;;;;;;6.43;2.78;;;11.60;99.90;;;14.38;56.87;98703.53;4908082;29;20243;-60
2022/11/10 09:45:31;;;;;;;2.75;1.80;;;11.60;99.90;;;14.47;56.89;98712.47;4910683;29;20364;-61
2022/11/10 09:48:37;;;;;;;7.13;2.03;;;11.70;99.90;;;14.54;56.93;98713.53;4908821;29;20246;-60
2022/11/10 09:51:37;;;;;;;4.15;1.70;;;11.70;99.90;;;14.57;56.41;98724.78;4911176;29;20048;-60
2022/11/10 09:54:50;;;;;;;6.38;2.20;;;11.70;99.90;;;14.56;56.86;98724.91;4908970;29;20059;-61
2022/11/10 09:57:37;;;;;;;3.40;1.67;;;11.70;99.90;;;14.61;56.60;98722.63;4911892;29;20047;-60
2022/11/10 10:00:23;;;;;;;4.10;1.80;;;11.80;99.90;;;14.59;56.30;98724.63;4913412;29;20070;-61
2022/11/10 10:03:18;;;;;;;4.00;2.45;;;11.80;99.90;;;14.58;56.40;98728.31;4927319;29;20054;-61
2022/11/10 10:06:12;;;;;;;7.20;2.20;;;11.80;99.90;;;14.66;56.20;98724.81;4920643;29;20063;-60
2022/11/10 10:09:27;;;;;;;4.18;2.00;;;11.80;99.90;;;14.59;56.51;98727.28;4908576;29;20052;-60
2022/11/10 10:12:32;;;;;;;4.78;1.73;;;11.80;99.90;;;14.66;56.16;98722.16;4911939;29;20047;-60
2022/11/10 10:15:35;;;;;;;5.82;2.17;;;11.80;99.90;;;14.72;56.33;98718.81;4909463;29;20050;-60
2022/11/10 10:18:22;;;;;;;3.80;1.65;;;11.80;99.90;;;14.77;56.17;98729.88;4911390;29;20244;-61
2022/11/10 10:21:32;;;;;;;3.25;1.60;;;11.90;99.90;;;14.82;56.06;98722.19;4910592;29;20262;-60
2022/11/10 10:24:22;;;;;;;5.05;1.70;;;12.00;99.90;;;14.82;55.62;98727.56;4906285;29;20373;-61
2022/11/10 10:27:19;;;;;;;4.20;1.95;;;12.00;99.90;;;14.86;55.39;98728.91;4908923;29;20051;-60
2022/11/10 10:30:19;;;;;;;3.97;1.80;;;12.10;99.90;;;14.82;55.60;98724.88;4906614;29;20072;-60
2022/11/10 10:33:19;;;;;;;3.10;1.10;;;12.10;99.70;;;14.92;55.11;98722.91;4910912;29;20054;-60
2022/11/10 10:36:16;;;;;;;2.47;2.28;;;12.20;99.90;;;14.96;54.85;98729.59;4907884;29;20397;-61
2022/11/10 10:39:16;;;;;;;2.90;1.63;;;12.20;99.10;;;15.02;54.54;98729.97;4910138;29;20241;-60
2022/11/10 10:42:15;;;;;;;2.95;1.42;;;12.20;96.60;;;14.95;54.43;98722.59;4908121;29;20051;-60
2022/11/10 10:45:20;;;;;;;4.88;2.20;;;12.20;97.10;;;15.05;54.37;98727.81;4910203;29;20138;-61
2022/11/10 10:48:30;;;;;;;4.63;1.40;;;12.30;97.30;;;15.12;54.29;98725.28;4909715;29;20066;-60
2022/11/10 10:51:30;;;;;;;3.30;1.25;;;12.40;94.60;;;15.18;53.51;98721.97;4911772;29;20059;-61
2022/11/10 10:54:27;;;;;;;3.90;2.92;;;12.40;93.20;;;15.21;54.16;98712.75;4908815;29;20051;-61
2022/11/10 10:57:28;;;;;;;5.78;1.83;;;12.50;96.20;;;15.26;53.96;98716.63;4906811;29;20051;-61
2022/11/10 11:00:22;;;;;;;3.75;1.15;;;12.50;95.50;;;15.31;53.91;98719.63;4919565;29;20377;-60
2022/11/10 11:03:40;;;;;;;3.75;1.77;;;12.50;95.90;;;15.23;53.17;98722.31;4926085;29;20058;-61
2022/11/10 11:06:32;;;;;;;6.78;1.35;;;12.60;92.30;;;15.30;52.64;98731.38;4917354;29;20064;-60
2022/11/10 11:09:24;;;;;;;3.70;1.30;;;12.60;88.80;;;15.24;52.64;98736.59;4904319;29;20386;-61
2022/11/10 11:12:16;;;;;;;1.10;0.90;;;12.70;91.20;;;15.39;52.21;98728.72;4911417;29;20047;-60
2022/11/10 11:15:25;;;;;;;3.65;1.33;;;12.70;87.30;;;15.44;52.62;98715.66;4909044;29;20063;-60
2022/11/10 11:18:16;;;;;;;2.60;1.45;;;12.70;90.00;;;15.52;51.75;98715.66;4911615;29;20051;-60
2022/11/10 11:21:33;;;;;;;3.83;1.17;;;12.80;87.70;;;15.59;52.09;98711.31;4909381;29;20380;-60
2022/11/10 11:24:56;;;;;;;2.75;2.22;;;12.80;90.20;;;15.45;51.44;98718.16;4906191;29;20373;-60
2022/11/10 11:28:14;;;;;;;4.78;1.10;;;12.90;87.10;;;15.55;52.29;98723.38;4908173;29;20047;-61
2022/11/10 11:31:27;;;;;;;2.80;1.15;;;13.00;90.00;;;15.72;51.78;98708.97;4910754;29;20055;-61
2022/11/10 11:34:26;;;;;;;4.07;1.58;;;13.00;85.30;;;15.68;51.25;98721.03;4907488;29;20063;-61
2022/11/10 11:37:29;;;;;;;2.83;1.27;;;13.10;85.00;;;15.77;51.11;98718.38;4911080;29;20063;-60
2022/11/10 11:40:46;;;;;;;4.70;1.63;;;13.20;84.40;;;15.73;50.86;98723.25;4906180;29;20050;-61
2022/11/10 11:44:08;;;;;;;3.15;1.63;;;13.20;81.80;;;15.89;51.23;98723.22;4910581;29;20067;-61
2022/11/10 11:47:36;;;;;;;2.58;1.67;;;13.30;85.60;;;15.98;50.99;98723.25;4907172;29;20055;-61
2022/11/10 11:50:38;;;;;;;5.03;1.50;;;13.30;81.30;;;16.06;50.67;98723.22;4910681;29;20067;-61
2022/11/10 11:53:30;;;;;;;1.92;0.98;;;13.30;84.40;;;16.08;50.57;98713.97;4910218;29;20046;-61
2022/11/10 11:56:34;;;;;;;3.38;1.45;;;13.40;83.20;;;16.09;50.47;98718.34;4913440;29;20046;-60
2022/11/10 11:59:45;;;;;;;3.20;1.40;;;13.40;80.70;;;16.04;49.21;98706.44;4910486;29;20047;-60
2022/11/10 12:03:19;;;;;;;3.22;1.40;;;13.40;78.00;;;16.00;49.12;98707.78;4932453;29;20050;-60
2022/11/10 12:06:24;;;;;;;5.68;1.23;;;13.40;77.20;;;16.13;49.50;98705.41;4924372;29;20055;-60
2022/11/10 12:09:33;;;;;;;5.38;1.52;;;13.40;81.20;;;16.24;50.14;98710.41;4911999;29;20377;-60
2022/11/10 12:12:50;;;;;;;3.88;1.52;;;13.60;79.80;;;16.34;49.48;98713.75;4908617;29;20087;-60
2022/11/10 12:15:37;;;;;;;3.25;1.40;;;13.70;80.00;;;16.32;48.33;98715.78;4911030;29;20055;-60